createdAt,value
2023-05-14T00:01:43.234Z,100872.08
2023-05-14T00:04:10.638Z,100871.33
2023-05-14T00:06:37.677Z,100869.29
2023-05-14T00:09:06.346Z,100867.98
2023-05-14T00:11:33.547Z,100868.58
2023-05-14T00:14:00.694Z,100868.77
2023-05-14T00:16:27.911Z,100871.75
2023-05-14T00:18:55.112Z,100869.42
2023-05-14T00:21:22.347Z,100869.31
2023-05-14T00:23:49.495Z,100870.80
2023-05-14T00:26:16.626Z,100868.34
2023-05-14T00:28:44.463Z,100867.00
2023-05-14T00:31:11.674Z,100868.20
2023-05-14T00:33:38.727Z,100869.86
2023-05-14T00:36:06.324Z,100866.31
2023-05-14T00:38:33.479Z,100866.39
2023-05-14T00:41:00.732Z,100865.37
2023-05-14T00:43:28.073Z,100863.89
2023-05-14T00:45:56.024Z,100862.09
2023-05-14T00:48:23.932Z,100861.63
2023-05-14T00:50:52.081Z,100863.13
2023-05-14T00:53:20.740Z,100857.61
2023-05-14T00:55:49.445Z,100856.48
2023-05-14T00:58:18.280Z,100860.31
2023-05-14T01:00:45.938Z,100857.02
2023-05-14T01:03:13.269Z,100854.48
2023-05-14T01:06:01.134Z,100850.46
2023-05-14T01:09:06.736Z,100851.92
2023-05-14T01:11:48.452Z,100851.92
2023-05-14T01:14:28.430Z,100858.88
2023-05-14T01:16:58.904Z,100855.32
2023-05-14T01:19:43.358Z,100858.45
2023-05-14T01:22:11.850Z,100853.83
2023-05-14T01:24:39.250Z,100851.18
2023-05-14T01:27:37.514Z,100852.89
2023-05-14T01:30:33.781Z,100852.85
2023-05-14T01:33:03.761Z,100853.02
2023-05-14T01:35:31.364Z,100850.81
2023-05-14T01:38:03.696Z,100850.33
2023-05-14T01:40:33.042Z,100850.16
2023-05-14T01:43:01.132Z,100847.91
2023-05-14T01:45:28.338Z,100843.17
2023-05-14T01:47:55.440Z,100842.78
2023-05-14T01:50:23.103Z,100843.66
2023-05-14T01:52:53.375Z,100841.02
2023-05-14T01:55:21.288Z,100842.64
2023-05-14T01:57:48.524Z,100840.60
2023-05-14T02:00:15.957Z,100843.19
2023-05-14T02:02:43.057Z,100840.86
2023-05-14T02:05:12.364Z,100840.34
2023-05-14T02:07:39.748Z,100842.81
2023-05-14T02:10:07.783Z,100844.02
2023-05-14T02:12:35.032Z,100843.66
2023-05-14T02:15:03.815Z,100839.44
2023-05-14T02:17:30.956Z,100839.63
2023-05-14T02:19:58.431Z,100836.91
2023-05-14T02:22:25.919Z,100837.85
2023-05-14T02:24:52.998Z,100836.69
2023-05-14T02:27:20.229Z,100833.84
2023-05-14T02:29:48.317Z,100831.55
2023-05-14T02:32:15.456Z,100832.37
2023-05-14T02:34:42.659Z,100831.02
2023-05-14T02:37:09.848Z,100829.38
2023-05-14T02:39:37.561Z,100827.73
2023-05-14T02:42:05.017Z,100823.87
2023-05-14T02:44:32.504Z,100823.37
2023-05-14T02:46:59.722Z,100822.14
2023-05-14T02:49:26.901Z,100826.81
2023-05-14T02:51:54.557Z,100826.51
2023-05-14T02:54:21.624Z,100822.29
2023-05-14T02:56:48.863Z,100819.44
2023-05-14T02:59:16.080Z,100812.86
2023-05-14T03:01:43.662Z,100811.41
2023-05-14T03:04:11.674Z,100813.98
2023-05-14T03:06:38.874Z,100814.00
2023-05-14T03:09:06.210Z,100815.23
2023-05-14T03:11:33.826Z,100813.56
2023-05-14T03:14:01.326Z,100811.19
2023-05-14T03:16:28.469Z,100816.79
2023-05-14T03:18:55.657Z,100822.46
2023-05-14T03:21:22.914Z,100820.20
2023-05-14T03:23:50.070Z,100818.77
2023-05-14T03:26:19.031Z,100816.15
2023-05-14T03:28:46.101Z,100814.08
2023-05-14T03:31:13.228Z,100814.41
2023-05-14T03:33:40.934Z,100813.89
2023-05-14T03:36:08.228Z,100810.89
2023-05-14T03:38:35.465Z,100810.50
2023-05-14T03:41:02.669Z,100811.13
2023-05-14T03:43:29.991Z,100813.21
2023-05-14T03:45:57.071Z,100808.95
2023-05-14T03:48:24.462Z,100810.27
2023-05-14T03:50:51.733Z,100805.14
2023-05-14T03:53:18.837Z,100802.10
2023-05-14T03:55:46.340Z,100802.79
2023-05-14T03:58:14.614Z,100805.23
2023-05-14T04:00:42.591Z,100806.41
2023-05-14T04:03:11.385Z,100801.95
2023-05-14T04:05:38.895Z,100802.59
2023-05-14T04:08:06.589Z,100799.89
2023-05-14T04:10:33.806Z,100797.16
2023-05-14T04:13:01.080Z,100797.67
2023-05-14T04:15:32.451Z,100797.83
2023-05-14T04:17:59.761Z,100792.62
2023-05-14T04:20:28.132Z,100791.01
2023-05-14T04:22:55.778Z,100791.61
2023-05-14T04:25:23.034Z,100796.20
2023-05-14T04:27:50.167Z,100795.59
2023-05-14T04:30:17.333Z,100795.13
2023-05-14T04:32:44.571Z,100792.65
2023-05-14T04:35:13.015Z,100795.45
2023-05-14T04:37:40.622Z,100792.98
2023-05-14T04:40:11.331Z,100794.20
2023-05-14T04:42:38.996Z,100791.85
2023-05-14T04:45:07.026Z,100794.37
2023-05-14T04:47:34.352Z,100785.71
2023-05-14T04:50:01.775Z,100790.13
2023-05-14T04:52:28.984Z,100789.41
2023-05-14T04:54:57.003Z,100787.66
2023-05-14T04:57:24.222Z,100786.77
2023-05-14T04:59:51.354Z,100787.14
2023-05-14T05:02:18.597Z,100780.98
2023-05-14T05:04:47.194Z,100782.91
2023-05-14T05:07:14.721Z,100779.44
2023-05-14T05:09:43.250Z,100775.05
2023-05-14T05:12:10.632Z,100770.16
2023-05-14T05:14:37.761Z,100767.84
2023-05-14T05:17:05.300Z,100765.94
2023-05-14T05:19:42.555Z,100765.20
2023-05-14T05:22:11.200Z,100763.81
2023-05-14T05:24:38.406Z,100762.04
2023-05-14T05:27:06.185Z,100761.97
2023-05-14T05:29:33.638Z,100760.87
2023-05-14T05:32:01.112Z,100762.52
2023-05-14T05:34:28.273Z,100762.98
2023-05-14T05:36:55.400Z,100760.13
2023-05-14T05:39:22.515Z,100757.40
2023-05-14T05:41:49.689Z,100757.58
2023-05-14T05:44:16.844Z,100756.77
2023-05-14T05:46:43.887Z,100753.34
2023-05-14T05:49:11.033Z,100748.15
2023-05-14T05:51:38.085Z,100746.02
2023-05-14T05:54:05.390Z,100749.55
2023-05-14T05:56:32.573Z,100749.52
2023-05-14T05:58:59.700Z,100747.83
2023-05-14T06:01:26.936Z,100749.99
2023-05-14T06:03:54.013Z,100745.98
2023-05-14T06:06:21.965Z,100746.40
2023-05-14T06:08:49.176Z,100744.02
2023-05-14T06:11:17.122Z,100743.48
2023-05-14T06:13:44.309Z,100739.15
2023-05-14T06:16:11.603Z,100739.74
2023-05-14T06:18:38.699Z,100740.18
2023-05-14T06:21:06.049Z,100740.11
2023-05-14T06:23:33.451Z,100737.52
2023-05-14T06:26:00.601Z,100735.45
2023-05-14T06:28:27.804Z,100735.09
2023-05-14T06:30:55.027Z,100730.91
2023-05-14T06:33:29.715Z,100736.27
2023-05-14T06:36:01.111Z,100734.08
2023-05-14T06:38:28.163Z,100732.64
2023-05-14T06:40:55.325Z,100732.67
2023-05-14T06:43:22.789Z,100733.63
2023-05-14T06:45:51.045Z,100729.16
2023-05-14T06:48:19.108Z,100729.27
2023-05-14T06:50:47.766Z,100726.70
2023-05-14T06:53:15.474Z,100724.84
2023-05-14T06:55:42.669Z,100730.69
2023-05-14T06:58:10.072Z,100726.66
2023-05-14T07:00:37.182Z,100724.48
2023-05-14T07:03:04.420Z,100721.49
2023-05-14T07:05:31.776Z,100719.44
2023-05-14T07:07:58.912Z,100719.14
2023-05-14T07:10:26.464Z,100722.22
2023-05-14T07:12:53.797Z,100721.11
2023-05-14T07:15:21.264Z,100718.91
2023-05-14T07:17:48.435Z,100718.27
2023-05-14T07:20:15.654Z,100718.84
2023-05-14T07:22:42.789Z,100716.94
2023-05-14T07:25:10.189Z,100716.23
2023-05-14T07:27:37.384Z,100709.30
2023-05-14T07:30:04.736Z,100703.96
2023-05-14T07:32:31.803Z,100704.84
2023-05-14T07:34:59.062Z,100703.10
2023-05-14T07:37:26.306Z,100703.30
2023-05-14T07:39:53.881Z,100704.38
2023-05-14T07:42:34.518Z,100697.84
2023-05-14T07:45:04.163Z,100694.84
2023-05-14T07:47:31.563Z,100697.23
2023-05-14T07:49:59.314Z,100694.54
2023-05-14T07:52:26.741Z,100692.84
2023-05-14T07:54:53.899Z,100693.31
2023-05-14T07:57:21.073Z,100695.67
2023-05-14T07:59:48.798Z,100689.18
2023-05-14T08:02:17.043Z,100681.91
2023-05-14T08:04:45.038Z,100677.11
2023-05-14T08:07:12.172Z,100680.77
2023-05-14T08:09:39.307Z,100680.33
2023-05-14T08:12:07.608Z,100674.61
2023-05-14T08:14:34.727Z,100677.13
2023-05-14T08:17:01.901Z,100668.67
2023-05-14T08:19:29.075Z,100668.29
2023-05-14T08:21:56.194Z,100665.89
2023-05-14T08:24:23.308Z,100666.40
2023-05-14T08:26:50.514Z,100667.02
2023-05-14T08:29:17.664Z,100664.85
2023-05-14T08:31:44.922Z,100670.90
2023-05-14T08:34:12.100Z,100670.73
2023-05-14T08:36:39.543Z,100670.35
2023-05-14T08:39:09.813Z,100665.54
2023-05-14T08:41:37.797Z,100657.33
2023-05-14T08:44:04.947Z,100655.79
2023-05-14T08:46:33.101Z,100654.34
2023-05-14T08:49:15.033Z,100656.90
2023-05-14T08:51:43.358Z,100650.77
2023-05-14T08:54:14.661Z,100643.05
2023-05-14T08:56:42.359Z,100637.39
2023-05-14T08:59:09.482Z,100639.13
2023-05-14T09:01:43.257Z,100635.16
2023-05-14T09:04:11.716Z,100633.00
2023-05-14T09:06:40.217Z,100634.36
2023-05-14T09:09:07.334Z,100628.09
2023-05-14T09:11:34.452Z,100626.83
2023-05-14T09:14:01.786Z,100620.71
2023-05-14T09:16:29.051Z,100627.85
2023-05-14T09:18:56.361Z,100627.95
2023-05-14T09:21:23.484Z,100625.34
2023-05-14T09:23:57.082Z,100623.94
2023-05-14T09:26:26.508Z,100627.91
2023-05-14T09:28:57.508Z,100617.13
2023-05-14T09:31:24.704Z,100617.17
2023-05-14T09:33:52.218Z,100613.86
2023-05-14T09:36:19.817Z,100619.38
2023-05-14T09:38:47.041Z,100620.34
2023-05-14T09:41:14.173Z,100610.31
2023-05-14T09:43:41.293Z,100617.15
2023-05-14T09:46:08.339Z,100613.05
2023-05-14T09:48:35.793Z,100603.90
2023-05-14T09:51:04.625Z,100596.38
2023-05-14T09:53:34.429Z,100592.70
2023-05-14T09:56:01.515Z,100595.62
2023-05-14T09:58:29.759Z,100591.04
2023-05-14T10:00:57.852Z,100595.85
2023-05-14T10:03:28.103Z,100594.30
2023-05-14T10:05:58.617Z,100579.88
2023-05-14T10:08:36.260Z,100586.44
2023-05-14T10:11:12.471Z,100574.99
2023-05-14T10:13:50.422Z,100588.08
2023-05-14T10:16:25.517Z,100581.57
2023-05-14T10:19:00.953Z,100582.61
2023-05-14T10:21:31.686Z,100569.23
2023-05-14T10:23:58.882Z,100573.58
2023-05-14T10:26:26.406Z,100571.45
2023-05-14T10:28:53.781Z,100572.88
2023-05-14T10:31:24.480Z,100560.11
2023-05-14T10:33:51.826Z,100565.53
2023-05-14T10:36:19.138Z,100573.41
2023-05-14T10:38:47.282Z,100560.02
2023-05-14T10:41:17.974Z,100554.99
2023-05-14T10:43:45.260Z,100552.02
2023-05-14T10:46:13.977Z,100546.86
2023-05-14T10:48:43.481Z,100545.74
2023-05-14T10:51:11.826Z,100546.40
2023-05-14T10:53:43.368Z,100549.45
2023-05-14T10:56:14.508Z,100539.73
2023-05-14T10:58:45.881Z,100540.19
2023-05-14T11:01:13.872Z,100530.28
2023-05-14T11:03:46.413Z,100520.75
2023-05-14T11:06:15.946Z,100525.30
2023-05-14T11:08:44.678Z,100524.27
2023-05-14T11:11:12.583Z,100523.11
2023-05-14T11:13:39.692Z,100521.56
2023-05-14T11:18:38.874Z,100523.19
2023-05-14T11:21:06.241Z,100517.28
2023-05-14T11:23:33.370Z,100509.86
2023-05-14T11:26:00.529Z,100504.09
2023-05-14T11:28:27.776Z,100511.61
2023-05-14T11:30:54.970Z,100512.66
2023-05-14T11:33:22.072Z,100500.77
2023-05-14T11:35:49.321Z,100501.19
2023-05-14T11:38:20.506Z,100496.80
2023-05-14T11:40:55.476Z,100492.54
2023-05-14T11:43:26.324Z,100489.27
2023-05-14T11:45:54.379Z,100493.60
2023-05-14T11:48:22.317Z,100490.87
2023-05-14T11:50:51.180Z,100485.64
2023-05-14T11:53:29.622Z,100487.69
2023-05-14T11:56:00.339Z,100482.24
2023-05-14T11:58:27.442Z,100480.63
2023-05-14T12:00:55.941Z,100477.67
2023-05-14T12:03:26.398Z,100473.89
2023-05-14T12:06:02.237Z,100470.58
2023-05-14T12:08:31.454Z,100470.28
2023-05-14T12:11:00.475Z,100474.74
2023-05-14T12:13:29.171Z,100469.94
2023-05-14T12:15:58.072Z,100465.64
2023-05-14T12:18:27.241Z,100455.38
2023-05-14T12:20:55.023Z,100453.86
2023-05-14T12:23:30.436Z,100445.48
2023-05-14T12:26:06.624Z,100441.39
2023-05-14T12:28:37.674Z,100444.10
2023-05-14T12:31:05.769Z,100439.34
2023-05-14T12:33:32.936Z,100431.02
2023-05-14T12:36:17.469Z,100424.48
2023-05-14T12:38:58.529Z,100418.13
2023-05-14T12:41:25.680Z,100409.38
2023-05-14T12:43:52.799Z,100405.48
2023-05-14T12:46:19.983Z,100392.00
2023-05-14T12:48:47.280Z,100395.14
2023-05-14T12:51:15.022Z,100391.71
2023-05-14T12:53:42.115Z,100397.52
2023-05-14T12:56:09.555Z,100397.02
2023-05-14T12:58:36.802Z,100390.80
2023-05-14T13:01:05.555Z,100398.09
2023-05-14T13:03:32.823Z,100397.02
2023-05-14T13:05:59.983Z,100394.43
2023-05-14T13:08:27.420Z,100381.05
2023-05-14T13:10:55.510Z,100387.94
2023-05-14T13:13:23.749Z,100386.59
2023-05-14T13:15:53.032Z,100374.92
2023-05-14T13:18:20.096Z,100371.30
2023-05-14T13:20:47.686Z,100366.20
2023-05-14T13:23:15.377Z,100364.11
2023-05-14T13:25:42.525Z,100365.34
2023-05-14T13:28:09.901Z,100365.74
2023-05-14T13:30:36.954Z,100367.08
2023-05-14T13:33:04.416Z,100364.98
2023-05-14T13:35:31.640Z,100359.66
2023-05-14T13:37:58.790Z,100351.67
2023-05-14T13:40:26.171Z,100346.33
2023-05-14T13:42:53.321Z,100347.52
2023-05-14T13:45:20.433Z,100343.13
2023-05-14T13:47:49.373Z,100351.53
2023-05-14T13:50:16.662Z,100346.02
2023-05-14T13:52:43.801Z,100342.84
2023-05-14T13:55:10.989Z,100341.02
2023-05-14T13:57:39.905Z,100344.74
2023-05-14T14:00:09.636Z,100340.77
2023-05-14T14:02:36.844Z,100332.84
2023-05-14T14:05:05.462Z,100329.21
2023-05-14T14:07:32.567Z,100332.27
2023-05-14T14:10:01.656Z,100331.63
2023-05-14T14:12:28.828Z,100330.62
2023-05-14T14:14:55.926Z,100325.09
2023-05-14T14:17:23.115Z,100325.13
2023-05-14T14:19:50.288Z,100319.61
2023-05-14T14:22:17.683Z,100316.77
2023-05-14T14:24:44.862Z,100309.46
2023-05-14T14:27:12.094Z,100306.46
2023-05-14T14:29:39.206Z,100307.46
2023-05-14T14:32:06.777Z,100304.55
2023-05-14T14:34:33.985Z,100297.11
2023-05-14T14:37:01.116Z,100290.84
2023-05-14T14:39:28.384Z,100290.09
2023-05-14T14:41:55.592Z,100290.09
2023-05-14T14:44:22.849Z,100288.80
2023-05-14T14:46:49.855Z,100287.27
2023-05-14T14:49:17.050Z,100289.83
2023-05-14T14:51:44.260Z,100288.52
2023-05-14T14:54:11.366Z,100279.36
2023-05-14T14:56:39.253Z,100276.98
2023-05-14T14:59:06.332Z,100276.90
2023-05-14T15:01:33.570Z,100275.63
2023-05-14T15:04:00.715Z,100268.75
2023-05-14T15:06:28.067Z,100265.56
2023-05-14T15:08:55.182Z,100261.05
2023-05-14T15:11:22.469Z,100262.33
2023-05-14T15:13:49.718Z,100264.21
2023-05-14T15:16:17.040Z,100266.13
2023-05-14T15:18:44.279Z,100269.41
2023-05-14T15:21:11.509Z,100270.96
2023-05-14T15:23:38.628Z,100269.20
2023-05-14T15:26:05.960Z,100265.82
2023-05-14T15:28:33.341Z,100269.41
2023-05-14T15:31:02.519Z,100267.38
2023-05-14T15:33:29.806Z,100266.00
2023-05-14T15:35:56.944Z,100268.34
2023-05-14T15:38:24.079Z,100267.95
2023-05-14T15:40:51.343Z,100268.27
2023-05-14T15:43:18.507Z,100271.84
2023-05-14T15:45:46.241Z,100272.86
2023-05-14T15:48:13.461Z,100263.57
2023-05-14T15:50:40.791Z,100263.23
2023-05-14T15:53:08.565Z,100258.47
2023-05-14T15:55:35.783Z,100255.45
2023-05-14T15:58:03.260Z,100253.08
2023-05-14T16:00:30.410Z,100254.39
2023-05-14T16:02:57.612Z,100254.39
2023-05-14T16:05:24.825Z,100253.11
2023-05-14T16:07:52.319Z,100252.76
2023-05-14T16:10:21.270Z,100250.98
2023-05-14T16:12:48.529Z,100242.18
2023-05-14T16:15:15.995Z,100242.10
2023-05-14T16:17:43.069Z,100236.95
2023-05-14T16:20:11.162Z,100233.89
2023-05-14T16:22:38.383Z,100227.14
2023-05-14T16:25:05.991Z,100227.86
2023-05-14T16:27:33.332Z,100224.02
2023-05-14T16:30:00.556Z,100226.88
2023-05-14T16:32:28.057Z,100219.98
2023-05-14T16:34:56.507Z,100217.39
2023-05-14T16:37:23.792Z,100217.77
2023-05-14T16:39:50.939Z,100215.46
2023-05-14T16:42:18.024Z,100215.66
2023-05-14T16:44:45.146Z,100217.44
2023-05-14T16:47:12.220Z,100213.05
2023-05-14T16:49:39.388Z,100209.48
2023-05-14T16:52:07.009Z,100210.95
2023-05-14T16:54:34.104Z,100210.10
2023-05-14T16:57:01.167Z,100206.08
2023-05-14T16:59:28.263Z,100205.19
2023-05-14T17:01:55.485Z,100200.03
2023-05-14T17:04:25.019Z,100197.91
2023-05-14T17:06:52.388Z,100195.52
2023-05-14T17:09:19.638Z,100198.19
2023-05-14T17:11:46.748Z,100196.23
2023-05-14T17:14:13.678Z,100198.94
2023-05-14T17:16:42.410Z,100199.60
2023-05-14T17:19:09.502Z,100201.54
2023-05-14T17:21:36.705Z,100204.30
2023-05-14T17:24:03.940Z,100201.10
2023-05-14T17:26:31.092Z,100200.20
2023-05-14T17:28:58.212Z,100198.75
2023-05-14T17:31:25.399Z,100192.55
2023-05-14T17:33:52.533Z,100190.58
2023-05-14T17:36:19.686Z,100191.48
2023-05-14T17:38:46.835Z,100192.07
2023-05-14T17:41:14.034Z,100190.09
2023-05-14T17:43:41.151Z,100192.74
2023-05-14T17:46:08.192Z,100189.46
2023-05-14T17:48:35.273Z,100186.02
2023-05-14T17:51:02.365Z,100189.20
2023-05-14T17:53:29.445Z,100187.02
2023-05-14T17:55:56.605Z,100187.20
2023-05-14T17:58:25.195Z,100189.42
2023-05-14T18:00:52.397Z,100184.02
2023-05-14T18:03:20.485Z,100190.78
2023-05-14T18:05:47.783Z,100191.90
2023-05-14T18:08:15.210Z,100191.74
2023-05-14T18:10:42.397Z,100191.49
2023-05-14T18:13:09.492Z,100195.45
2023-05-14T18:15:37.066Z,100191.65
2023-05-14T18:18:04.767Z,100193.44
2023-05-14T18:20:33.396Z,100193.65
2023-05-14T18:23:02.228Z,100191.88
2023-05-14T18:25:29.556Z,100192.31
2023-05-14T18:27:56.668Z,100193.58
2023-05-14T18:30:23.732Z,100195.91
2023-05-14T18:32:51.071Z,100198.89
2023-05-14T18:35:18.402Z,100194.11
2023-05-14T18:37:46.119Z,100195.90
2023-05-14T18:40:16.867Z,100198.23
2023-05-14T18:42:45.558Z,100199.02
2023-05-14T18:45:12.807Z,100204.67
2023-05-14T18:47:40.125Z,100205.17
2023-05-14T18:50:08.358Z,100202.63
2023-05-14T18:52:35.465Z,100202.19
2023-05-14T18:55:02.705Z,100204.04
2023-05-14T18:57:32.244Z,100200.98
2023-05-14T19:00:02.056Z,100201.55
2023-05-14T19:02:29.253Z,100202.42
2023-05-14T19:04:56.563Z,100200.51
2023-05-14T19:07:23.653Z,100200.20
2023-05-14T19:09:51.074Z,100203.36
2023-05-14T19:12:18.181Z,100199.98
2023-05-14T19:14:45.409Z,100195.88
2023-05-14T19:17:12.555Z,100198.71
2023-05-14T19:19:39.756Z,100196.22
2023-05-14T19:22:07.157Z,100196.52
2023-05-14T19:24:34.399Z,100196.53
2023-05-14T19:27:01.621Z,100193.38
2023-05-14T19:29:28.750Z,100193.89
2023-05-14T19:31:56.128Z,100193.90
2023-05-14T19:34:23.699Z,100190.13
2023-05-14T19:36:50.984Z,100190.60
2023-05-14T19:39:18.160Z,100193.61
2023-05-14T19:41:45.362Z,100196.73
2023-05-14T19:44:12.519Z,100192.66
2023-05-14T19:46:39.690Z,100193.08
2023-05-14T19:49:06.879Z,100192.85
2023-05-14T19:51:33.973Z,100192.73
2023-05-14T19:54:01.283Z,100192.34
2023-05-14T19:56:28.511Z,100180.83
2023-05-14T19:58:55.748Z,100185.04
2023-05-14T20:01:23.105Z,100182.77
2023-05-14T20:03:50.526Z,100180.89
2023-05-14T20:06:18.555Z,100177.92
2023-05-14T20:08:45.738Z,100176.00
2023-05-14T20:11:12.833Z,100170.46
2023-05-14T20:13:39.978Z,100165.44
2023-05-14T20:16:07.252Z,100163.80
2023-05-14T20:18:34.468Z,100162.64
2023-05-14T20:21:01.775Z,100161.75
2023-05-14T20:23:28.938Z,100164.27
2023-05-14T20:25:56.277Z,100159.95
2023-05-14T20:28:23.349Z,100163.27
2023-05-14T20:30:50.384Z,100160.20
2023-05-14T20:33:17.674Z,100163.80
2023-05-14T20:35:44.962Z,100164.40
2023-05-14T20:38:13.491Z,100158.45
2023-05-14T20:40:40.892Z,100156.81
2023-05-14T20:43:08.084Z,100154.99
2023-05-14T20:45:35.335Z,100156.01
2023-05-14T20:48:02.548Z,100154.45
2023-05-14T20:50:29.723Z,100151.89
2023-05-14T20:52:56.915Z,100152.96
2023-05-14T20:55:24.371Z,100153.14
2023-05-14T20:57:51.633Z,100153.72
2023-05-14T21:00:19.438Z,100152.21
2023-05-14T21:02:46.695Z,100148.95
2023-05-14T21:05:14.188Z,100147.96
2023-05-14T21:07:41.324Z,100140.61
2023-05-14T21:10:09.499Z,100139.29
2023-05-14T21:12:36.721Z,100134.50
2023-05-14T21:15:04.056Z,100130.68
2023-05-14T21:17:31.503Z,100129.60
2023-05-14T21:19:58.703Z,100128.30
2023-05-14T21:22:27.500Z,100129.92
2023-05-14T21:24:56.138Z,100126.80
2023-05-14T21:27:23.437Z,100122.75
2023-05-14T21:29:50.659Z,100124.17
2023-05-14T21:32:19.284Z,100116.11
2023-05-14T21:34:46.331Z,100116.61
2023-05-14T21:37:13.478Z,100113.56
2023-05-14T21:39:40.990Z,100110.84
2023-05-14T21:42:09.066Z,100114.04
2023-05-14T21:44:36.211Z,100114.23
2023-05-14T21:47:04.056Z,100111.84
2023-05-14T21:49:31.178Z,100112.02
2023-05-14T21:51:58.349Z,100112.75
2023-05-14T21:54:25.474Z,100109.13
2023-05-14T21:56:52.497Z,100107.05
2023-05-14T21:59:19.855Z,100105.79
2023-05-14T22:02:05.447Z,100103.47
2023-05-14T22:04:33.839Z,100101.30
2023-05-14T22:07:00.993Z,100102.25
2023-05-14T22:09:28.067Z,100095.27
2023-05-14T22:11:55.756Z,100094.53
2023-05-14T22:14:22.928Z,100089.06
2023-05-14T22:16:50.285Z,100084.90
2023-05-14T22:19:17.659Z,100084.98
2023-05-14T22:21:44.789Z,100080.42
2023-05-14T22:24:11.777Z,100078.77
2023-05-14T22:26:38.994Z,100079.00
2023-05-14T22:29:06.110Z,100078.33
2023-05-14T22:31:33.400Z,100078.81
2023-05-14T22:34:00.587Z,100073.72
2023-05-14T22:36:27.766Z,100076.96
2023-05-14T22:38:55.187Z,100072.31
2023-05-14T22:41:22.340Z,100070.14
2023-05-14T22:43:49.623Z,100067.88
2023-05-14T22:46:16.742Z,100064.95
2023-05-14T22:48:44.965Z,100063.80
2023-05-14T22:51:12.039Z,100057.55
2023-05-14T22:53:39.132Z,100050.67
2023-05-14T22:56:06.435Z,100049.82
2023-05-14T22:58:33.646Z,100046.58
2023-05-14T23:01:00.754Z,100038.58
2023-05-14T23:03:28.040Z,100039.07
2023-05-14T23:05:55.258Z,100031.13
2023-05-14T23:08:22.311Z,100026.58
2023-05-14T23:10:49.424Z,100026.45
2023-05-14T23:13:16.682Z,100018.05
2023-05-14T23:15:44.395Z,100017.48
2023-05-14T23:18:11.708Z,100014.57
2023-05-14T23:20:38.881Z,100010.27
2023-05-14T23:23:06.517Z,100005.18
2023-05-14T23:25:33.537Z,99999.72
2023-05-14T23:28:00.791Z,99997.13
2023-05-14T23:30:27.891Z,99990.83
2023-05-14T23:32:55.052Z,99984.79
2023-05-14T23:35:22.323Z,99981.48
2023-05-14T23:37:51.022Z,99979.88
2023-05-14T23:40:18.327Z,99974.65
2023-05-14T23:42:45.559Z,99971.31
2023-05-14T23:45:13.493Z,99966.44
2023-05-14T23:47:41.311Z,99963.00
2023-05-14T23:50:08.985Z,99964.31
2023-05-14T23:52:36.062Z,99960.45
2023-05-14T23:55:03.298Z,99959.08
2023-05-14T23:57:30.629Z,99950.86
2023-05-14T23:59:57.871Z,99948.20
